| time (UTC) | temp C | wind direction | speed KPH | gust KPH | rain 1hr cm | rain 24hr cm | rain mn cm | humidity % | barometer mb |
| 20260507114503 | 8 | 11 | 0.0 | 0.0 | 0.00 | 1.78 | 0.66 | 63 | 1006.0 |
| 20260507113101 | 8 | 1 | 0.0 | 0.0 | 0.00 | 1.78 | 0.66 | 60 | 1006.1 |
| 20260507111556 | 8 | 20 | 0.0 | 0.0 | 0.00 | 1.78 | 0.66 | 59 | 1006.4 |
| 20260507110052 | 8 | 6 | 0.0 | 0.0 | 0.00 | 1.78 | 0.66 | 53 | 1006.3 |
| 20260507104547 | 8 | 354 | 0.0 | 0.0 | 0.00 | 1.78 | 0.66 | 51 | 1006.1 |
| 20260507103042 | 8 | 340 | 0.0 | 0.0 | 0.00 | 1.78 | 0.66 | 45 | 1006.2 |
| 20260507101538 | -17 | 0.0 | 0.0 | 0.00 | 1.78 | 0.66 | 1006.1 | ||
| 20260507100035 | -17 | 0.0 | 0.0 | 0.00 | 1.78 | 0.66 | 1005.2 | ||
| 20260507094529 | -17 | 0.0 | 0.0 | 0.00 | 1.78 | 0.66 | 1005.8 | ||
| 20260507093025 | -17 | 0.0 | 0.0 | 0.00 | 1.78 | 0.66 | 1005.0 | ||
| 20260507091526 | -17 | 0.0 | 0.0 | 0.00 | 1.78 | 0.66 | 1005.6 | ||
| 20260507090020 | -17 | 0.0 | 0.0 | 0.00 | 1.78 | 0.66 | 1005.5 | ||
| 20260507084511 | -17 | 0.0 | 0.0 | 0.00 | 1.78 | 0.66 | 1005.4 | ||
| 20260507083007 | -17 | 0.0 | 0.0 | 0.00 | 1.78 | 0.66 | 1005.2 | ||
| 20260507081503 | -17 | 0.0 | 0.0 | 0.00 | 1.78 | 0.66 | 1005.4 | ||
| 20260507080115 | -17 | 0.0 | 0.0 | 0.00 | 1.78 | 0.66 | 1005.0 | ||
| 20260507074555 | -17 | 0.0 | 0.0 | 0.00 | 1.78 | 0.66 | 1005.1 | ||
| 20260507073050 | -17 | 0.0 | 0.0 | 0.00 | 1.78 | 0.66 | 1004.9 | ||
| 20260507071606 | -17 | 0.0 | 0.0 | 0.00 | 1.78 | 0.66 | 1004.4 | ||
| 20260507070045 | -17 | 0.0 | 0.0 | 0.00 | 1.78 | 0.66 | 1004.3 | ||
| 20260507064541 | -17 | 0.0 | 0.0 | 0.00 | 1.78 | 0.66 | 1004.1 | ||
| 20260507063042 | -17 | 0.0 | 0.0 | 0.00 | 1.78 | 0.66 | 1003.9 | ||
| 20260507061532 | -17 | 0.0 | 0.0 | 0.00 | 1.78 | 0.66 | 1004.3 | ||
| 20260507060036 | -17 | 0.0 | 0.0 | 0.00 | 1.78 | 0.66 | 1004.1 | ||
| 20260507054522 | -17 | 0.0 | 0.0 | 0.13 | 1.78 | 0.66 | 1003.8 | ||
| 20260507053018 | -17 | 0.0 | 0.0 | 0.48 | 1.78 | 0.66 | 1003.9 | ||
| 20260507051526 | -17 | 0.0 | 0.0 | 0.64 | 1.78 | 0.66 | 1003.9 | ||
| 20260507050012 | 10 | 342 | 0.0 | 0.0 | 0.66 | 1.78 | 0.66 | 1 | 1004.0 |
| 20260507044505 | 11 | 355 | 0.0 | 0.0 | 0.51 | 1.63 | 0.51 | 1 | 1004.4 |
| 20260507043003 | 11 | 233 | 0.0 | 0.0 | 0.15 | 1.27 | 0.15 | 1 | 1004.0 |
| 20260507041558 | 11 | 197 | 0.0 | 0.0 | 0.03 | 1.14 | 0.03 | 1 | 1003.2 |
| 20260507040052 | 10 | 186 | 0.0 | 0.0 | 0.00 | 1.12 | 0.00 | 1 | 1003.3 |
| 20260507034547 | 11 | 188 | 0.0 | 0.0 | 0.00 | 1.12 | 1.12 | 1 | 1003.4 |
| 20260507033048 | 11 | 212 | 0.0 | 0.0 | 0.03 | 1.12 | 1.12 | 1 | 1003.5 |
| 20260507031539 | 11 | 180 | 0.0 | 0.0 | 0.03 | 1.12 | 1.12 | 1 | 1003.4 |
| 20260507030034 | 11 | 164 | 0.0 | 0.0 | 0.03 | 1.12 | 1.12 | 1 | 1003.5 |
| 20260507024536 | 10 | 184 | 0.0 | 0.0 | 0.03 | 1.12 | 1.12 | 1 | 1003.9 |
| 20260507023033 | 10 | 173 | 0.0 | 0.0 | 0.00 | 1.09 | 1.09 | 1 | 1003.9 |
| 20260507021521 | 10 | 179 | 0.0 | 0.0 | 0.03 | 1.09 | 1.09 | 1 | 1004.1 |
| 20260507020021 | 10 | 195 | 0.0 | 0.0 | 0.03 | 1.09 | 1.09 | 1 | 1004.4 |
| 20260507014514 | 10 | 161 | 0.0 | 0.0 | 0.08 | 1.09 | 1.09 | 1 | 1004.6 |
| 20260507013008 | 10 | 208 | 0.0 | 0.0 | 0.08 | 1.09 | 1.09 | 1 | 1004.7 |
| 20260507011505 | 9 | 189 | 0.0 | 0.0 | 0.05 | 1.07 | 1.07 | 1 | 1004.7 |
| 20260507010112 | 9 | 196 | 0.0 | 0.0 | 0.05 | 1.07 | 1.07 | 1 | 1004.6 |
| 20260507004611 | 10 | 180 | 0.0 | 0.0 | 0.00 | 1.02 | 1.02 | 1 | 1005.1 |
| 20260507003054 | 9 | 209 | 0.0 | 0.0 | 0.00 | 1.02 | 1.02 | 1 | 1005.2 |
| 20260507001551 | 9 | 186 | 0.0 | 0.0 | 0.00 | 1.02 | 1.02 | 1 | 1005.1 |
| 20260507000043 | 9 | 211 | 0.0 | 0.0 | 0.00 | 1.02 | 1.02 | 1 | 1005.1 |
| 20260506234537 | 10 | 206 | 0.0 | 0.0 | 0.00 | 1.02 | 1.02 | 1 | 1005.4 |
| 20260506233034 | 10 | 219 | 0.0 | 0.0 | 0.05 | 1.02 | 1.02 | 1 | 1005.4 |
| 20260506231529 | 10 | 188 | 0.0 | 0.0 | 0.15 | 1.02 | 1.02 | 1 | 1005.5 |
| 20260506230025 | 10 | 169 | 0.0 | 0.0 | 0.20 | 1.02 | 1.02 | 1 | 1005.5 |
| 20260506224521 | 10 | 205 | 0.0 | 0.0 | 0.28 | 1.02 | 1.02 | 1 | 1005.6 |
| 20260506223017 | 10 | 224 | 0.0 | 0.0 | 0.38 | 0.97 | 0.97 | 1 | 1005.7 |
| 20260506221511 | 10 | 210 | 0.0 | 0.0 | 0.46 | 0.86 | 0.86 | 1 | 1005.8 |
| 20260506220018 | 10 | 174 | 0.0 | 0.0 | 0.48 | 0.81 | 0.81 | 1 | 1006.0 |
| 20260506214505 | 10 | 182 | 0.0 | 0.0 | 0.46 | 0.71 | 0.71 | 1 | 1005.9 |
| 20260506213057 | 11 | 176 | 0.0 | 0.0 | 0.36 | 0.58 | 0.58 | 1 | 1006.1 |
| 20260506211558 | 11 | 210 | 0.0 | 0.0 | 0.25 | 0.41 | 0.41 | 1 | 1006.5 |
| 20260506210048 | 11 | 179 | 0.0 | 0.0 | 0.25 | 0.33 | 0.33 | 9 | 1006.5 |
| 20260506204549 | 11 | 211 | 0.0 | 0.0 | 0.23 | 0.28 | 0.28 | 1 | 1006.4 |
| 20260506203038 | 12 | 155 | 0.0 | 0.0 | 0.23 | 0.23 | 0.23 | 1 | 1006.4 |
| 20260506201534 | 11 | 118 | 0.0 | 0.0 | 0.13 | 0.13 | 0.13 | 1 | 1006.9 |
| 20260506200030 | 11 | 127 | 0.0 | 0.0 | 0.08 | 0.08 | 0.08 | 6 | 1006.8 |
| 20260506194527 | 11 | 165 | 0.0 | 0.0 | 0.05 | 0.05 | 0.05 | 27 | 1007.1 |
| 20260506193025 | 11 | 160 | 0.0 | 0.0 | 0.00 | 0.00 | 0.00 | 28 | 1006.8 |
| 20260506191526 | 11 | 186 | 0.0 | 0.0 | 0.00 | 0.00 | 0.00 | 47 | 1006.5 |
| 20260506190026 | 11 | 162 | 0.0 | 0.0 | 0.00 | 0.00 | 0.00 | 47 | 1006.6 |
| 20260506184522 | 11 | 165 | 0.0 | 0.0 | 0.00 | 0.00 | 0.00 | 45 | 1006.8 |
| 20260506183022 | 12 | 200 | 0.0 | 0.0 | 0.00 | 0.00 | 0.00 | 49 | 1007.0 |
| 20260506181522 | 11 | 176 | 0.0 | 0.0 | 0.00 | 0.00 | 0.00 | 47 | 1007.1 |
| 20260506180018 | 11 | 176 | 0.0 | 0.0 | 0.00 | 0.00 | 0.00 | 49 | 1007.3 |
| 20260506174517 | 11 | 186 | 0.0 | 0.0 | 0.00 | 0.00 | 0.00 | 52 | 1007.5 |
| 20260506173015 | 12 | 155 | 0.0 | 0.0 | 0.00 | 0.00 | 0.00 | 55 | 1007.6 |
| 20260506171517 | 12 | 187 | 0.0 | 0.0 | 0.00 | 0.00 | 0.00 | 61 | 1007.9 |
| 20260506170012 | 12 | 210 | 0.0 | 0.0 | 0.00 | 0.00 | 0.00 | 60 | 1008.1 |
| 20260506164511 | 12 | 197 | 0.0 | 0.0 | 0.00 | 0.00 | 0.00 | 54 | 1008.4 |
| 20260506163011 | 12 | 226 | 0.0 | 0.0 | 0.00 | 0.00 | 0.00 | 59 | 1008.6 |
| 20260506161510 | 12 | 201 | 0.0 | 0.0 | 0.00 | 0.00 | 0.00 | 58 | 1009.0 |
| 20260506160013 | 13 | 188 | 0.0 | 0.0 | 0.00 | 0.00 | 0.00 | 58 | 1009.0 |
| 20260506154509 | 12 | 196 | 0.0 | 0.0 | 0.00 | 0.00 | 0.00 | 59 | 1009.4 |
| 20260506153010 | 12 | 212 | 0.0 | 0.0 | 0.00 | 0.00 | 0.00 | 49 | 1009.1 |
| 20260506151607 | 12 | 219 | 0.0 | 0.0 | 0.00 | 0.00 | 0.00 | 55 | 1009.1 |
| 20260506150008 | 12 | 214 | 0.0 | 0.0 | 0.00 | 0.00 | 0.00 | 61 | 1008.8 |
| 20260506144507 | 13 | 188 | 0.0 | 0.0 | 0.00 | 0.00 | 0.00 | 59 | 1008.7 |
| 20260506143004 | 12 | 191 | 0.0 | 0.0 | 0.00 | 0.00 | 0.00 | 41 | 1009.1 |
| 20260506141502 | 11 | 214 | 0.0 | 0.0 | 0.00 | 0.00 | 0.00 | 34 | 1009.4 |
| 20260506140000 | 12 | 196 | 0.0 | 0.0 | 0.00 | 0.00 | 0.00 | 46 | 1009.4 |
| 20260506134604 | 12 | 189 | 0.0 | 0.0 | 0.00 | 0.00 | 0.00 | 49 | 1009.4 |
| 20260506133101 | 12 | 225 | 0.0 | 0.0 | 0.00 | 0.00 | 0.00 | 29 | 1009.2 |
| 20260506131558 | 11 | 178 | 0.0 | 0.0 | 0.00 | 0.00 | 0.00 | 43 | 1009.2 |
| 20260506130057 | 11 | 163 | 0.0 | 0.0 | 0.00 | 0.00 | 0.00 | 48 | 1009.0 |
| 20260506124558 | 12 | 195 | 0.0 | 0.0 | 0.00 | 0.00 | 0.00 | 54 | 1009.1 |
| 20260506123054 | 12 | 161 | 0.0 | 0.0 | 0.00 | 0.00 | 0.00 | 38 | 1009.3 |
| 20260506121552 | 11 | 167 | 0.0 | 0.0 | 0.00 | 0.00 | 0.00 | 39 | 1009.3 |
| 20260506120052 | 12 | 188 | 0.0 | 0.0 | 0.00 | 0.00 | 0.00 | 43 | 1009.3 |